createdAt,value
2023-03-21T00:01:22.954Z,7.69
2023-03-21T00:02:54.705Z,7.75
2023-03-21T00:04:33.147Z,7.75
2023-03-21T00:06:12.975Z,7.78
2023-03-21T00:07:44.570Z,7.82
2023-03-21T00:09:16.550Z,7.84
2023-03-21T00:10:48.563Z,7.80
2023-03-21T00:12:21.161Z,7.82
2023-03-21T00:13:53.511Z,7.82
2023-03-21T00:15:30.680Z,7.79
2023-03-21T00:17:10.982Z,7.75
2023-03-21T00:18:46.415Z,7.73
2023-03-21T00:20:18.244Z,7.81
2023-03-21T00:22:06.615Z,7.74
2023-03-21T00:23:39.102Z,7.69
2023-03-21T00:25:11.073Z,7.66
2023-03-21T00:26:42.672Z,7.66
2023-03-21T00:28:14.345Z,7.71
2023-03-21T00:29:49.350Z,7.78
2023-03-21T00:31:23.201Z,7.79
2023-03-21T00:32:56.724Z,7.77
2023-03-21T00:34:36.911Z,7.77
2023-03-21T00:36:21.694Z,7.73
2023-03-21T00:37:53.510Z,7.68
2023-03-21T00:39:25.280Z,7.71
2023-03-21T00:40:58.206Z,7.75
2023-03-21T00:42:31.737Z,7.76
2023-03-21T00:44:04.194Z,7.75
2023-03-21T00:45:36.083Z,7.76
2023-03-21T00:47:08.310Z,7.76
2023-03-21T00:48:40.012Z,7.80
2023-03-21T00:50:12.514Z,7.77
2023-03-21T00:51:44.552Z,7.78
2023-03-21T00:53:16.204Z,7.85
2023-03-21T00:54:48.074Z,7.85
2023-03-21T00:56:19.751Z,7.74
2023-03-21T00:58:01.190Z,7.71
2023-03-21T00:59:33.732Z,7.68
2023-03-21T01:01:06.673Z,7.73
2023-03-21T01:02:43.433Z,7.74
2023-03-21T01:04:16.648Z,7.83
2023-03-21T01:06:18.603Z,7.76
2023-03-21T01:07:53.106Z,7.77
2023-03-21T01:09:25.433Z,7.73
2023-03-21T01:10:57.306Z,7.73
2023-03-21T01:12:28.994Z,7.62
2023-03-21T01:14:18.841Z,7.72
2023-03-21T01:15:55.398Z,7.68
2023-03-21T01:17:27.068Z,7.66
2023-03-21T01:18:59.635Z,7.77
2023-03-21T01:20:31.331Z,7.73
2023-03-21T01:22:03.036Z,7.73
2023-03-21T01:23:34.927Z,7.71
2023-03-21T01:25:21.504Z,7.70
2023-03-21T01:26:54.208Z,7.68
2023-03-21T01:28:28.048Z,7.72
2023-03-21T01:29:59.828Z,7.74
2023-03-21T01:31:31.948Z,7.76
2023-03-21T01:33:03.786Z,7.77
2023-03-21T01:34:36.276Z,7.78
2023-03-21T01:36:13.307Z,7.80
2023-03-21T01:37:46.341Z,7.84
2023-03-21T01:39:18.120Z,7.81
2023-03-21T01:40:52.687Z,7.79
2023-03-21T01:42:33.951Z,7.74
2023-03-21T01:44:06.291Z,7.78
2023-03-21T01:46:04.805Z,7.79
2023-03-21T01:48:13.059Z,7.80
2023-03-21T01:49:57.510Z,7.79
2023-03-21T01:51:36.310Z,7.73
2023-03-21T01:53:08.243Z,7.70
2023-03-21T01:54:42.587Z,7.71
2023-03-21T01:56:22.398Z,7.69
2023-03-21T01:58:06.691Z,7.69
2023-03-21T01:59:57.345Z,7.71
2023-03-21T02:01:29.696Z,7.71
2023-03-21T02:03:16.940Z,7.71
2023-03-21T02:05:05.641Z,7.71
2023-03-21T02:06:49.379Z,7.71
2023-03-21T02:08:39.122Z,7.73
2023-03-21T02:10:17.075Z,7.73
2023-03-21T02:11:54.379Z,7.77
2023-03-21T02:13:27.075Z,7.79
2023-03-21T02:14:58.820Z,7.79
2023-03-21T02:16:59.640Z,7.74
2023-03-21T02:18:54.463Z,7.77
2023-03-21T02:20:43.841Z,7.80
2023-03-21T02:22:15.791Z,7.77
2023-03-21T02:24:24.413Z,7.76
2023-03-21T02:26:14.371Z,7.77
2023-03-21T02:28:04.142Z,7.76
2023-03-21T02:29:54.433Z,7.77
2023-03-21T02:31:47.035Z,7.70
2023-03-21T02:33:39.632Z,7.71
2023-03-21T02:35:26.162Z,7.71
2023-03-21T02:37:07.446Z,7.73
2023-03-21T02:38:43.420Z,7.69
2023-03-21T02:40:23.953Z,7.74
2023-03-21T02:42:19.076Z,7.77
2023-03-21T02:43:50.708Z,7.80
2023-03-21T02:45:28.211Z,7.97
2023-03-21T02:47:30.629Z,7.78
2023-03-21T02:49:09.652Z,7.72
2023-03-21T02:50:43.634Z,7.69
2023-03-21T02:52:32.101Z,7.68
2023-03-21T02:54:30.366Z,7.65
2023-03-21T02:56:12.191Z,7.66
2023-03-21T02:57:51.174Z,7.64
2023-03-21T02:59:25.376Z,7.65
2023-03-21T03:00:58.291Z,7.58
2023-03-21T03:02:37.708Z,7.55
2023-03-21T03:04:23.905Z,7.61
2023-03-21T03:05:58.936Z,7.63
2023-03-21T03:07:36.499Z,7.74
2023-03-21T03:09:29.631Z,7.71
2023-03-21T03:11:15.500Z,7.69
2023-03-21T03:12:53.018Z,7.72
2023-03-21T03:14:46.924Z,7.60
2023-03-21T03:16:27.517Z,7.66
2023-03-21T03:18:04.707Z,7.59
2023-03-21T03:19:50.559Z,7.58
2023-03-21T03:21:40.392Z,7.69
2023-03-21T03:23:37.522Z,7.59
2023-03-21T03:25:23.171Z,7.56
2023-03-21T03:27:08.798Z,7.54
2023-03-21T03:28:50.509Z,7.51
2023-03-21T03:30:29.637Z,7.49
2023-03-21T03:32:13.671Z,7.57
2023-03-21T03:33:48.235Z,7.44
2023-03-21T03:35:22.899Z,7.35
2023-03-21T03:36:57.979Z,7.32
2023-03-21T03:38:32.218Z,7.33
2023-03-21T03:40:11.580Z,7.30
2023-03-21T03:42:12.470Z,7.33
2023-03-21T03:43:55.035Z,7.28
2023-03-21T03:45:35.705Z,7.19
2023-03-21T03:47:31.997Z,7.05
2023-03-21T03:49:10.767Z,6.98
2023-03-21T03:50:51.122Z,6.99
2023-03-21T03:52:34.145Z,6.90
2023-03-21T03:54:21.664Z,6.90
2023-03-21T03:55:56.377Z,6.89
2023-03-21T03:57:29.788Z,6.80
2023-03-21T03:59:04.512Z,6.79
2023-03-21T04:00:56.737Z,6.76
2023-03-21T04:02:30.190Z,6.77
2023-03-21T04:04:12.574Z,6.61
2023-03-21T04:05:48.083Z,6.62
2023-03-21T04:07:21.520Z,6.55
2023-03-21T04:08:57.048Z,6.51
2023-03-21T04:10:28.898Z,6.48
2023-03-21T04:12:00.767Z,6.50
2023-03-21T04:13:33.778Z,6.46
2023-03-21T04:15:13.948Z,6.36
2023-03-21T04:16:50.626Z,6.32
2023-03-21T04:18:23.790Z,6.31
2023-03-21T04:20:05.480Z,6.32
2023-03-21T04:21:42.910Z,6.30
2023-03-21T04:23:14.671Z,6.27
2023-03-21T04:24:50.491Z,6.20
2023-03-21T04:26:23.641Z,6.19
2023-03-21T04:28:15.261Z,6.25
2023-03-21T04:30:13.271Z,6.24
2023-03-21T04:31:59.644Z,6.20
2023-03-21T04:33:31.505Z,6.17
2023-03-21T04:35:03.138Z,6.15
2023-03-21T04:36:43.526Z,6.13
2023-03-21T04:38:15.361Z,6.12
2023-03-21T04:39:47.987Z,6.08
2023-03-21T04:41:20.022Z,6.05
2023-03-21T04:42:53.226Z,6.04
2023-03-21T04:44:24.843Z,6.01
2023-03-21T04:45:56.610Z,5.97
2023-03-21T04:47:28.384Z,6.00
2023-03-21T04:49:00.903Z,6.01
2023-03-21T04:50:32.562Z,6.00
2023-03-21T04:52:05.748Z,6.02
2023-03-21T04:53:38.454Z,6.02
2023-03-21T04:55:11.280Z,5.99
2023-03-21T04:56:44.741Z,5.96
2023-03-21T04:58:18.009Z,5.95
2023-03-21T04:59:50.425Z,5.95
2023-03-21T05:01:22.563Z,5.98
2023-03-21T05:02:54.436Z,6.04
2023-03-21T05:04:27.711Z,6.10
2023-03-21T05:06:01.339Z,6.14
2023-03-21T05:07:32.958Z,6.13
2023-03-21T05:09:05.756Z,6.17
2023-03-21T05:10:38.630Z,6.18
2023-03-21T05:12:10.256Z,6.17
2023-03-21T05:13:41.924Z,6.15
2023-03-21T05:15:13.924Z,6.16
2023-03-21T05:16:54.152Z,6.13
2023-03-21T05:18:26.905Z,6.12
2023-03-21T05:20:11.679Z,6.17
2023-03-21T05:21:43.614Z,6.12
2023-03-21T05:23:24.076Z,6.05
2023-03-21T05:24:56.962Z,6.01
2023-03-21T05:26:56.402Z,6.03
2023-03-21T05:28:31.856Z,6.19
2023-03-21T05:30:08.419Z,6.13
2023-03-21T05:31:40.316Z,6.10
2023-03-21T05:33:15.619Z,6.09
2023-03-21T05:34:47.326Z,6.10
2023-03-21T05:36:19.266Z,6.09
2023-03-21T05:37:51.613Z,6.09
2023-03-21T05:39:23.348Z,6.09
2023-03-21T05:41:06.550Z,6.10
2023-03-21T05:42:38.440Z,6.12
2023-03-21T05:44:19.096Z,6.11
2023-03-21T05:45:50.807Z,6.21
2023-03-21T05:47:23.318Z,6.15
2023-03-21T05:48:57.011Z,6.08
2023-03-21T05:50:29.786Z,6.14
2023-03-21T05:52:14.667Z,6.01
2023-03-21T05:53:46.372Z,6.00
2023-03-21T05:55:20.031Z,6.09
2023-03-21T05:56:51.859Z,6.08
2023-03-21T05:58:32.706Z,6.07
2023-03-21T06:00:06.344Z,6.07
2023-03-21T06:01:47.031Z,6.14
2023-03-21T06:03:20.920Z,6.19
2023-03-21T06:05:02.702Z,6.24
2023-03-21T06:06:34.427Z,6.23
2023-03-21T06:08:06.921Z,6.28
2023-03-21T06:09:38.712Z,6.27
2023-03-21T06:11:22.953Z,6.36
2023-03-21T06:12:56.462Z,6.32
2023-03-21T06:14:33.693Z,6.45
2023-03-21T06:16:17.765Z,6.62
2023-03-21T06:17:49.420Z,6.71
2023-03-21T06:19:21.944Z,6.84
2023-03-21T06:21:12.572Z,7.03
2023-03-21T06:22:45.652Z,7.11
2023-03-21T06:24:17.891Z,7.37
2023-03-21T06:25:49.558Z,7.37
2023-03-21T06:27:21.304Z,7.44
2023-03-21T06:28:56.184Z,7.45
2023-03-21T06:30:28.025Z,7.37
2023-03-21T06:32:09.828Z,7.28
2023-03-21T06:33:41.993Z,7.33
2023-03-21T06:35:13.768Z,6.83
2023-03-21T06:36:46.816Z,6.75
2023-03-21T06:38:21.239Z,6.73
2023-03-21T06:39:55.402Z,6.80
2023-03-21T06:41:27.900Z,6.83
2023-03-21T06:43:07.028Z,6.94
2023-03-21T06:44:38.905Z,7.08
2023-03-21T06:46:14.222Z,7.19
2023-03-21T06:47:46.372Z,7.34
2023-03-21T06:49:29.557Z,7.45
2023-03-21T06:51:05.179Z,7.57
2023-03-21T06:52:38.332Z,7.81
2023-03-21T06:54:10.725Z,7.80
2023-03-21T06:55:57.247Z,7.88
2023-03-21T06:57:29.085Z,7.94
2023-03-21T06:59:02.107Z,7.92
2023-03-21T07:01:01.823Z,8.04
2023-03-21T07:02:34.423Z,8.21
2023-03-21T07:04:11.554Z,8.34
2023-03-21T07:05:43.620Z,8.45
2023-03-21T07:07:15.879Z,8.50
2023-03-21T07:08:48.101Z,8.64
2023-03-21T07:10:20.415Z,8.70
2023-03-21T07:12:02.980Z,8.98
2023-03-21T07:13:48.735Z,9.35
2023-03-21T07:15:20.809Z,9.91
2023-03-21T07:16:52.653Z,11.67
2023-03-21T07:18:24.620Z,15.16
2023-03-21T07:19:56.490Z,17.03
2023-03-21T07:21:28.468Z,17.98
2023-03-21T07:23:00.947Z,19.28
2023-03-21T07:24:32.932Z,18.75
2023-03-21T07:26:06.114Z,20.98
2023-03-21T07:27:40.664Z,21.18
2023-03-21T07:29:12.783Z,21.29
2023-03-21T07:30:45.869Z,21.40
2023-03-21T07:32:22.388Z,22.63
2023-03-21T07:33:55.470Z,22.76
2023-03-21T07:35:27.811Z,22.12
2023-03-21T07:37:00.527Z,22.83
2023-03-21T07:38:32.314Z,22.86
2023-03-21T07:40:10.684Z,19.97
2023-03-21T07:41:43.608Z,17.29
2023-03-21T07:43:26.454Z,15.48
2023-03-21T07:44:58.206Z,14.72
2023-03-21T07:46:29.953Z,14.34
2023-03-21T07:48:02.009Z,14.55
2023-03-21T07:49:38.837Z,16.78
2023-03-21T07:51:11.714Z,21.10
2023-03-21T07:52:43.769Z,22.27
2023-03-21T07:54:15.543Z,23.78
2023-03-21T07:55:52.141Z,25.23
2023-03-21T07:57:23.854Z,27.88
2023-03-21T07:58:55.707Z,28.13
2023-03-21T08:00:27.487Z,29.72
2023-03-21T08:01:59.249Z,29.52
2023-03-21T08:03:33.285Z,29.99
2023-03-21T08:05:05.311Z,29.56
2023-03-21T08:06:37.110Z,29.15
2023-03-21T08:08:08.840Z,27.66
2023-03-21T08:09:40.914Z,26.48
2023-03-21T08:11:13.413Z,27.01
2023-03-21T08:12:45.659Z,26.51
2023-03-21T08:14:17.510Z,26.76
2023-03-21T08:15:49.525Z,27.30
2023-03-21T08:17:21.289Z,25.81
2023-03-21T08:18:53.120Z,23.14
2023-03-21T08:20:25.163Z,22.02
2023-03-21T08:21:59.823Z,22.79
2023-03-21T08:23:31.504Z,22.07
2023-03-21T08:25:05.882Z,21.35
2023-03-21T08:26:38.200Z,23.54
2023-03-21T08:28:09.944Z,27.64
2023-03-21T08:29:42.505Z,30.43
2023-03-21T08:31:14.863Z,33.43
2023-03-21T08:32:46.908Z,33.64
2023-03-21T08:34:19.580Z,30.76
2023-03-21T08:35:51.501Z,30.22
2023-03-21T08:37:23.389Z,32.06
2023-03-21T08:38:57.227Z,29.94
2023-03-21T08:40:29.039Z,28.73
2023-03-21T08:42:01.013Z,28.13
2023-03-21T08:43:32.784Z,28.85
2023-03-21T08:45:05.847Z,32.15
2023-03-21T08:46:37.769Z,32.77
2023-03-21T08:48:09.582Z,34.22
2023-03-21T08:49:42.288Z,34.44
2023-03-21T08:51:13.989Z,33.42
2023-03-21T08:52:45.810Z,34.42
2023-03-21T08:54:21.497Z,33.25
2023-03-21T08:55:53.201Z,33.39
2023-03-21T08:57:24.973Z,34.66
2023-03-21T08:58:56.686Z,33.12
2023-03-21T09:00:28.428Z,33.78
2023-03-21T09:02:00.220Z,34.70
2023-03-21T09:03:32.021Z,36.21
2023-03-21T09:05:04.220Z,37.04
2023-03-21T09:06:36.206Z,36.17
2023-03-21T09:08:07.999Z,35.70
2023-03-21T09:09:39.938Z,35.59
2023-03-21T09:11:11.703Z,35.39
2023-03-21T09:12:43.779Z,35.87
2023-03-21T09:14:15.588Z,34.27
2023-03-21T09:15:48.127Z,32.54
2023-03-21T09:17:21.278Z,32.09
2023-03-21T09:18:55.635Z,31.60
2023-03-21T09:20:31.329Z,28.60
2023-03-21T09:22:03.545Z,28.71
2023-03-21T09:23:35.621Z,29.47
2023-03-21T09:25:08.482Z,30.42
2023-03-21T09:26:40.439Z,33.08
2023-03-21T09:28:13.268Z,32.79
2023-03-21T09:29:45.112Z,33.51
2023-03-21T09:31:21.748Z,34.61
2023-03-21T09:32:55.761Z,33.64
2023-03-21T09:34:28.429Z,34.88
2023-03-21T09:36:00.524Z,33.35
2023-03-21T09:37:33.726Z,33.56
2023-03-21T09:39:05.466Z,32.45
2023-03-21T09:41:01.401Z,32.77
2023-03-21T09:42:37.670Z,33.09
2023-03-21T09:44:32.993Z,35.28
2023-03-21T09:46:13.951Z,35.57
2023-03-21T09:47:53.748Z,33.24
2023-03-21T09:49:31.213Z,32.50
2023-03-21T09:51:04.816Z,30.82
2023-03-21T09:52:55.647Z,30.91
2023-03-21T09:54:33.473Z,30.90
2023-03-21T09:56:06.826Z,31.32
2023-03-21T09:57:43.180Z,30.12
2023-03-21T09:59:25.542Z,29.53
2023-03-21T10:01:10.457Z,31.06
2023-03-21T10:02:54.639Z,31.23
2023-03-21T10:04:29.057Z,30.20
2023-03-21T10:06:07.362Z,29.73
2023-03-21T10:07:42.462Z,29.21
2023-03-21T10:09:22.991Z,29.44
2023-03-21T10:11:01.345Z,26.83
2023-03-21T10:12:33.118Z,28.08
2023-03-21T10:14:33.080Z,27.64
2023-03-21T10:16:17.398Z,28.34
2023-03-21T10:17:52.987Z,27.48
2023-03-21T10:19:27.394Z,26.55
2023-03-21T10:20:59.436Z,26.89
2023-03-21T10:22:31.130Z,25.04
2023-03-21T10:24:02.905Z,26.04
2023-03-21T10:25:38.381Z,25.55
2023-03-21T10:27:13.280Z,25.83
2023-03-21T10:28:53.131Z,24.86
2023-03-21T10:30:37.001Z,23.43
2023-03-21T10:32:11.946Z,22.74
2023-03-21T10:33:46.189Z,21.51
2023-03-21T10:35:19.703Z,21.35
2023-03-21T10:36:51.561Z,21.43
2023-03-21T10:38:25.843Z,21.36
2023-03-21T10:39:57.922Z,21.05
2023-03-21T10:41:29.657Z,20.90
2023-03-21T10:43:30.954Z,19.89
2023-03-21T10:45:02.819Z,20.12
2023-03-21T10:46:36.316Z,20.01
2023-03-21T10:48:08.808Z,19.93
2023-03-21T10:50:05.100Z,19.95
2023-03-21T10:51:36.078Z,19.56
2023-03-21T10:53:29.384Z,19.67
2023-03-21T10:55:21.482Z,20.04
2023-03-21T10:56:53.265Z,19.78
2023-03-21T10:58:33.384Z,19.43
2023-03-21T11:00:15.862Z,18.80
2023-03-21T11:01:51.639Z,18.83
2023-03-21T11:03:33.965Z,18.96
2023-03-21T11:05:27.639Z,18.60
2023-03-21T11:07:03.572Z,18.75
2023-03-21T11:09:19.483Z,18.70
2023-03-21T11:11:00.768Z,18.00
2023-03-21T11:12:38.530Z,18.15
2023-03-21T11:14:26.458Z,17.78
2023-03-21T11:16:06.530Z,18.11
2023-03-21T11:17:39.115Z,18.28
2023-03-21T11:19:17.852Z,18.07
2023-03-21T11:20:55.792Z,18.14
2023-03-21T11:22:31.044Z,18.28
2023-03-21T11:24:03.041Z,17.75
2023-03-21T11:25:41.658Z,18.30
2023-03-21T11:27:13.572Z,18.22
2023-03-21T11:28:46.488Z,18.32
2023-03-21T11:30:27.427Z,18.52
2023-03-21T11:32:10.682Z,18.59
2023-03-21T11:33:48.395Z,18.68
2023-03-21T11:35:23.777Z,18.67
2023-03-21T11:37:01.289Z,18.33
2023-03-21T11:38:38.180Z,18.16
2023-03-21T11:40:15.467Z,17.86
2023-03-21T11:41:51.318Z,17.67
2023-03-21T11:43:23.651Z,17.56
2023-03-21T11:45:12.813Z,17.45
2023-03-21T11:46:44.592Z,17.45
2023-03-21T11:48:16.353Z,17.61
2023-03-21T11:49:49.597Z,17.72
2023-03-21T11:51:54.058Z,17.81
2023-03-21T11:53:46.735Z,17.57
2023-03-21T11:55:24.838Z,17.52
2023-03-21T11:57:15.734Z,17.36
2023-03-21T11:59:02.910Z,17.30
2023-03-21T12:00:47.166Z,17.24
2023-03-21T12:02:31.283Z,17.31
2023-03-21T12:04:31.836Z,17.61
2023-03-21T12:06:11.153Z,17.56
2023-03-21T12:08:01.046Z,17.53
2023-03-21T12:09:44.801Z,17.59
2023-03-21T12:11:43.807Z,17.81
2023-03-21T12:13:24.672Z,17.72
2023-03-21T12:14:56.563Z,17.83
2023-03-21T12:16:48.231Z,17.98
2023-03-21T12:18:28.947Z,17.90
2023-03-21T12:20:08.187Z,18.06
2023-03-21T12:21:46.041Z,17.97
2023-03-21T12:23:27.040Z,17.76
2023-03-21T12:25:08.748Z,17.43
2023-03-21T12:26:46.189Z,17.21
2023-03-21T12:28:51.854Z,17.49
2023-03-21T12:30:46.247Z,17.42
2023-03-21T12:32:17.963Z,17.36
2023-03-21T12:34:26.927Z,17.28
2023-03-21T12:36:27.456Z,17.31
2023-03-21T12:38:14.674Z,17.34
2023-03-21T12:39:48.654Z,17.40
2023-03-21T12:41:23.579Z,17.46
2023-03-21T12:43:37.494Z,17.69
2023-03-21T12:45:29.449Z,17.97
2023-03-21T12:47:09.471Z,18.10
2023-03-21T12:48:52.645Z,18.30
2023-03-21T12:50:37.450Z,18.33
2023-03-21T12:52:19.382Z,18.46
2023-03-21T12:53:56.810Z,18.36
2023-03-21T12:55:32.604Z,18.54
2023-03-21T12:57:17.971Z,18.42
2023-03-21T12:58:56.388Z,18.73
2023-03-21T13:00:45.671Z,18.39
2023-03-21T13:02:28.982Z,18.64
2023-03-21T13:04:27.390Z,19.11
2023-03-21T13:06:02.342Z,19.26
2023-03-21T13:07:39.611Z,19.15
2023-03-21T13:09:28.479Z,19.07
2023-03-21T13:11:08.558Z,19.25
2023-03-21T13:12:58.514Z,18.98
2023-03-21T13:14:37.512Z,18.95
2023-03-21T13:16:09.277Z,18.73
2023-03-21T13:17:50.438Z,18.82
2023-03-21T13:19:34.880Z,18.92
2023-03-21T13:21:19.141Z,18.95
2023-03-21T13:22:50.972Z,18.93
2023-03-21T13:24:31.770Z,19.04
2023-03-21T13:26:03.930Z,19.30
2023-03-21T13:27:41.491Z,19.49
2023-03-21T13:29:21.174Z,18.95
2023-03-21T13:30:54.010Z,19.36
2023-03-21T13:32:40.884Z,18.95
2023-03-21T13:34:13.287Z,19.23
2023-03-21T13:35:53.794Z,19.53
2023-03-21T13:37:32.679Z,19.75
2023-03-21T13:39:06.839Z,19.55
2023-03-21T13:40:49.929Z,19.42
2023-03-21T13:42:24.347Z,19.44
2023-03-21T13:43:56.063Z,19.32
2023-03-21T13:45:32.098Z,19.26
2023-03-21T13:47:06.953Z,19.01
2023-03-21T13:48:58.731Z,18.69
2023-03-21T13:50:52.600Z,18.67
2023-03-21T13:52:28.266Z,18.58
2023-03-21T13:54:20.763Z,18.51
2023-03-21T13:56:08.803Z,18.49
2023-03-21T13:57:40.817Z,18.62
2023-03-21T13:59:24.237Z,18.59
2023-03-21T14:01:14.305Z,18.62
2023-03-21T14:03:09.342Z,18.64
2023-03-21T14:04:54.177Z,18.45
2023-03-21T14:06:47.522Z,18.40
2023-03-21T14:08:31.296Z,18.40
2023-03-21T14:10:28.069Z,18.33
2023-03-21T14:12:07.469Z,18.29
2023-03-21T14:13:50.899Z,18.08
2023-03-21T14:15:33.121Z,17.96
2023-03-21T14:17:14.300Z,17.95
2023-03-21T14:18:55.984Z,18.12
2023-03-21T14:20:32.312Z,18.18
2023-03-21T14:22:05.228Z,18.17
2023-03-21T14:23:39.027Z,18.20
2023-03-21T14:25:15.585Z,18.20
2023-03-21T14:26:53.584Z,18.20
2023-03-21T14:28:32.776Z,18.19
2023-03-21T14:30:05.479Z,18.28
2023-03-21T14:31:39.530Z,18.23
2023-03-21T14:33:35.294Z,18.19
2023-03-21T14:35:11.799Z,18.26
2023-03-21T14:36:51.732Z,18.24
2023-03-21T14:38:33.283Z,18.17
2023-03-21T14:40:27.129Z,18.06
2023-03-21T14:42:08.234Z,18.11
2023-03-21T14:43:39.860Z,18.00
2023-03-21T14:45:41.377Z,17.92
2023-03-21T14:47:20.358Z,18.05
2023-03-21T14:48:52.180Z,18.05
2023-03-21T14:50:38.989Z,18.07
2023-03-21T14:52:17.811Z,18.00
2023-03-21T14:53:49.632Z,17.92
2023-03-21T14:55:21.501Z,17.85
2023-03-21T14:57:00.400Z,17.82
2023-03-21T14:58:33.473Z,17.87
2023-03-21T15:00:12.931Z,17.79
2023-03-21T15:01:47.564Z,17.87
2023-03-21T15:03:22.587Z,17.80
2023-03-21T15:04:58.044Z,17.66
2023-03-21T15:06:30.317Z,17.61
2023-03-21T15:08:09.358Z,17.66
2023-03-21T15:09:54.466Z,17.73
2023-03-21T15:11:34.603Z,17.70
2023-03-21T15:13:19.326Z,17.65
2023-03-21T15:14:51.833Z,17.61
2023-03-21T15:16:23.855Z,17.52
2023-03-21T15:18:00.589Z,17.49
2023-03-21T15:19:35.930Z,17.42
2023-03-21T15:21:19.707Z,17.37
2023-03-21T15:23:02.381Z,17.50
2023-03-21T15:24:39.866Z,17.35
2023-03-21T15:26:22.042Z,17.31
2023-03-21T15:27:55.388Z,17.26
2023-03-21T15:29:27.519Z,17.18
2023-03-21T15:30:59.350Z,17.23
2023-03-21T15:32:34.091Z,17.05
2023-03-21T15:34:06.393Z,17.16
2023-03-21T15:35:41.875Z,17.26
2023-03-21T15:37:21.263Z,17.19
2023-03-21T15:38:54.085Z,17.10
2023-03-21T15:40:29.302Z,17.11
2023-03-21T15:42:03.022Z,17.00
2023-03-21T15:43:39.822Z,16.81
2023-03-21T15:45:23.833Z,16.78
2023-03-21T15:46:56.479Z,16.98
2023-03-21T15:48:33.999Z,16.83
2023-03-21T15:50:25.349Z,16.77
2023-03-21T15:52:16.954Z,16.66
2023-03-21T15:53:51.556Z,16.68
2023-03-21T15:55:28.287Z,16.66
2023-03-21T15:57:09.552Z,16.64
2023-03-21T15:58:44.907Z,16.74
2023-03-21T16:00:18.493Z,16.79
2023-03-21T16:01:51.066Z,16.75
2023-03-21T16:03:24.729Z,16.78
2023-03-21T16:05:21.950Z,16.70
2023-03-21T16:06:59.546Z,16.61
2023-03-21T16:08:36.578Z,16.50
2023-03-21T16:10:26.702Z,16.55
2023-03-21T16:11:59.999Z,16.55
2023-03-21T16:13:31.612Z,16.59
2023-03-21T16:15:03.383Z,16.53
2023-03-21T16:16:35.740Z,16.53
2023-03-21T16:18:10.863Z,16.40
2023-03-21T16:19:43.950Z,16.38
2023-03-21T16:21:18.438Z,16.21
2023-03-21T16:22:50.527Z,16.19
2023-03-21T16:24:22.285Z,16.13
2023-03-21T16:25:57.845Z,16.11
2023-03-21T16:27:29.487Z,16.10
2023-03-21T16:29:01.495Z,16.09
2023-03-21T16:30:33.139Z,16.22
2023-03-21T16:32:06.896Z,16.12
2023-03-21T16:33:39.495Z,16.01
2023-03-21T16:35:11.513Z,15.86
2023-03-21T16:36:44.101Z,15.84
2023-03-21T16:38:15.979Z,15.92
2023-03-21T16:39:48.275Z,15.87
2023-03-21T16:41:21.277Z,15.79
2023-03-21T16:42:53.110Z,15.67
2023-03-21T16:44:24.914Z,15.72
2023-03-21T16:45:57.003Z,15.62
2023-03-21T16:47:28.799Z,15.65
2023-03-21T16:49:00.427Z,15.70
2023-03-21T16:50:41.379Z,15.67
2023-03-21T16:52:13.928Z,15.55
2023-03-21T16:53:46.464Z,15.54
2023-03-21T16:55:18.170Z,15.58
2023-03-21T16:56:55.745Z,15.40
2023-03-21T16:58:29.635Z,15.40
2023-03-21T17:00:01.632Z,15.28
2023-03-21T17:01:36.031Z,15.18
2023-03-21T17:03:18.948Z,15.07
2023-03-21T17:04:51.510Z,14.96
2023-03-21T17:06:26.289Z,14.91
2023-03-21T17:08:02.525Z,14.87
2023-03-21T17:09:36.069Z,14.83
2023-03-21T17:11:13.441Z,14.77
2023-03-21T17:12:45.478Z,14.74
2023-03-21T17:14:18.028Z,14.71
2023-03-21T17:15:49.661Z,14.66
2023-03-21T17:17:21.677Z,14.62
2023-03-21T17:18:53.510Z,14.57
2023-03-21T17:20:26.514Z,14.55
2023-03-21T17:21:58.190Z,14.70
2023-03-21T17:23:29.817Z,14.60
2023-03-21T17:25:03.177Z,14.58
2023-03-21T17:26:34.989Z,14.52
2023-03-21T17:28:06.952Z,14.44
2023-03-21T17:29:38.694Z,14.35
2023-03-21T17:31:16.293Z,14.32
2023-03-21T17:32:49.376Z,14.37
2023-03-21T17:34:21.392Z,14.33
2023-03-21T17:35:53.235Z,14.30
2023-03-21T17:37:26.176Z,14.23
2023-03-21T17:38:58.178Z,14.18
2023-03-21T17:40:32.132Z,14.10
2023-03-21T17:42:13.048Z,14.08
2023-03-21T17:43:45.066Z,14.01
2023-03-21T17:45:17.390Z,13.96
2023-03-21T17:46:51.990Z,13.91
2023-03-21T17:48:24.221Z,13.93
2023-03-21T17:49:55.894Z,14.05
2023-03-21T17:51:30.181Z,13.97
2023-03-21T17:53:01.862Z,13.91
2023-03-21T17:54:33.574Z,13.93
2023-03-21T17:56:05.671Z,13.88
2023-03-21T17:57:37.843Z,13.79
2023-03-21T17:59:13.584Z,13.75
2023-03-21T18:00:46.957Z,13.70
2023-03-21T18:02:20.598Z,13.69
2023-03-21T18:03:54.853Z,13.68
2023-03-21T18:05:27.640Z,13.68
2023-03-21T18:07:01.128Z,13.66
2023-03-21T18:08:33.290Z,13.69
2023-03-21T18:10:05.663Z,13.72
2023-03-21T18:11:39.179Z,13.72
2023-03-21T18:13:10.967Z,13.76
2023-03-21T18:14:42.882Z,13.81
2023-03-21T18:16:20.101Z,13.88
2023-03-21T18:17:52.028Z,13.68
2023-03-21T18:19:24.229Z,13.58
2023-03-21T18:20:57.940Z,13.61
2023-03-21T18:22:31.469Z,13.50
2023-03-21T18:24:03.254Z,13.52
2023-03-21T18:25:34.923Z,13.50
2023-03-21T18:27:06.812Z,13.55
2023-03-21T18:28:41.160Z,13.63
2023-03-21T18:30:36.109Z,13.54
2023-03-21T18:32:10.584Z,13.41
2023-03-21T18:33:45.021Z,13.38
2023-03-21T18:35:19.981Z,13.33
2023-03-21T18:36:51.980Z,13.59
2023-03-21T18:38:23.839Z,13.56
2023-03-21T18:39:56.294Z,13.53
2023-03-21T18:41:29.461Z,13.42
2023-03-21T18:43:59.241Z,13.43
2023-03-21T18:44:53.842Z,13.28
2023-03-21T18:46:25.747Z,13.21
2023-03-21T18:47:57.577Z,13.16
2023-03-21T18:51:22.314Z,13.06
2023-03-21T18:52:54.008Z,13.08
2023-03-21T18:54:26.434Z,13.15
2023-03-21T18:55:58.432Z,13.15
2023-03-21T18:57:39.021Z,13.14
2023-03-21T18:59:11.898Z,13.18
2023-03-21T19:00:43.886Z,13.13
2023-03-21T19:02:16.336Z,13.00
2023-03-21T19:04:15.382Z,12.95
2023-03-21T19:05:41.155Z,12.96
2023-03-21T19:07:12.984Z,13.00
2023-03-21T19:08:44.833Z,12.95
2023-03-21T19:10:19.867Z,12.90
2023-03-21T19:11:52.801Z,12.94
2023-03-21T19:13:24.642Z,12.91
2023-03-21T19:14:56.719Z,12.92
2023-03-21T19:16:32.725Z,12.89
2023-03-21T19:20:05.654Z,13.04
2023-03-21T19:21:37.413Z,13.01
2023-03-21T19:23:10.178Z,12.95
2023-03-21T19:24:43.020Z,12.91
2023-03-21T19:26:14.933Z,12.84
2023-03-21T19:27:46.585Z,12.77
2023-03-21T19:29:18.363Z,12.76
2023-03-21T19:30:50.994Z,12.71
2023-03-21T19:32:23.562Z,12.70
2023-03-21T19:33:55.688Z,12.75
2023-03-21T19:35:28.348Z,12.70
2023-03-21T19:37:02.590Z,12.70
2023-03-21T19:38:34.363Z,12.65
2023-03-21T19:40:09.040Z,12.56
2023-03-21T19:41:41.063Z,12.58
2023-03-21T19:43:31.885Z,12.52
2023-03-21T19:45:05.527Z,12.47
2023-03-21T19:46:37.273Z,12.40
2023-03-21T19:48:09.083Z,12.36
2023-03-21T19:51:33.828Z,12.43
2023-03-21T19:53:05.974Z,12.49
2023-03-21T19:54:37.956Z,12.38
2023-03-21T19:56:21.228Z,12.29
2023-03-21T19:57:54.862Z,12.13
2023-03-21T19:59:26.442Z,12.14
2023-03-21T20:00:58.345Z,12.18
2023-03-21T20:02:37.491Z,12.26
2023-03-21T20:04:09.876Z,12.21
2023-03-21T20:05:42.778Z,12.26
2023-03-21T20:07:14.667Z,12.18
2023-03-21T20:10:38.496Z,12.22
2023-03-21T20:12:10.418Z,12.19
2023-03-21T20:13:42.326Z,12.20
2023-03-21T20:15:19.432Z,12.15
2023-03-21T20:16:55.395Z,12.13
2023-03-21T20:18:27.237Z,12.35
2023-03-21T20:19:59.984Z,12.29
2023-03-21T20:21:40.251Z,12.14
2023-03-21T20:23:16.034Z,12.18
2023-03-21T20:24:48.750Z,12.24
2023-03-21T20:26:20.990Z,12.10
2023-03-21T20:28:10.473Z,11.98
2023-03-21T20:31:36.280Z,11.81
2023-03-21T20:33:08.178Z,11.74
2023-03-21T20:34:40.329Z,11.63
2023-03-21T20:38:04.189Z,11.52
2023-03-21T20:39:36.067Z,11.50
2023-03-21T20:41:07.842Z,11.53
2023-03-21T20:42:42.828Z,11.51
2023-03-21T20:46:10.990Z,11.56
2023-03-21T20:47:43.486Z,11.52
2023-03-21T20:49:15.531Z,11.52
2023-03-21T20:50:50.627Z,11.56
2023-03-21T20:54:16.969Z,11.39
2023-03-21T20:55:48.686Z,11.32
2023-03-21T20:57:20.761Z,11.36
2023-03-21T20:59:04.838Z,11.32
2023-03-21T21:00:44.999Z,11.30
2023-03-21T21:02:16.924Z,11.37
2023-03-21T21:03:49.528Z,11.34
2023-03-21T21:05:28.074Z,11.31
2023-03-21T21:07:01.066Z,11.41
2023-03-21T21:08:33.536Z,11.39
2023-03-21T21:10:05.956Z,11.39
2023-03-21T21:13:29.655Z,11.27
2023-03-21T21:15:01.814Z,11.22
2023-03-21T21:16:33.574Z,11.20
2023-03-21T21:18:07.280Z,11.27
2023-03-21T21:19:39.556Z,11.25
2023-03-21T21:21:11.230Z,11.23
2023-03-21T21:22:59.490Z,11.24